sensor_id;sensor_type;location;lat;lon;timestamp;temperature;humidity
20654;DHT22;21083;50.898;4.902;2022-07-11T00:01:16;19.20;99.90
20654;DHT22;21083;50.898;4.902;2022-07-11T00:03:43;19.20;99.90
20654;DHT22;21083;50.898;4.902;2022-07-11T00:06:10;19.10;99.90
20654;DHT22;21083;50.898;4.902;2022-07-11T00:08:37;19.00;99.90
20654;DHT22;21083;50.898;4.902;2022-07-11T00:11:05;18.90;99.90
20654;DHT22;21083;50.898;4.902;2022-07-11T00:13:32;18.90;99.90
20654;DHT22;21083;50.898;4.902;2022-07-11T00:15:59;18.70;99.90
20654;DHT22;21083;50.898;4.902;2022-07-11T00:18:26;18.70;99.90
20654;DHT22;21083;50.898;4.902;2022-07-11T00:20:53;18.60;99.90
20654;DHT22;21083;50.898;4.902;2022-07-11T00:23:19;18.50;99.90
20654;DHT22;21083;50.898;4.902;2022-07-11T00:25:46;18.40;99.90
20654;DHT22;21083;50.898;4.902;2022-07-11T00:28:15;18.40;99.90
20654;DHT22;21083;50.898;4.902;2022-07-11T00:30:42;18.50;99.90
20654;DHT22;21083;50.898;4.902;2022-07-11T00:33:09;18.50;99.90
20654;DHT22;21083;50.898;4.902;2022-07-11T00:35:36;18.50;99.90
20654;DHT22;21083;50.898;4.902;2022-07-11T00:38:03;18.50;99.90
20654;DHT22;21083;50.898;4.902;2022-07-11T00:40:30;18.50;99.90
20654;DHT22;21083;50.898;4.902;2022-07-11T00:42:57;18.60;99.90
20654;DHT22;21083;50.898;4.902;2022-07-11T00:45:26;18.60;99.90
20654;DHT22;21083;50.898;4.902;2022-07-11T00:47:53;18.50;99.90
20654;DHT22;21083;50.898;4.902;2022-07-11T00:50:21;18.50;99.90
20654;DHT22;21083;50.898;4.902;2022-07-11T00:52:50;18.40;99.90
20654;DHT22;21083;50.898;4.902;2022-07-11T00:55:17;18.40;99.90
20654;DHT22;21083;50.898;4.902;2022-07-11T00:57:45;18.40;99.90
20654;DHT22;21083;50.898;4.902;2022-07-11T01:00:12;18.30;99.90
20654;DHT22;21083;50.898;4.902;2022-07-11T01:02:40;18.10;99.90
20654;DHT22;21083;50.898;4.902;2022-07-11T01:05:08;18.00;99.90
20654;DHT22;21083;50.898;4.902;2022-07-11T01:07:35;18.00;99.90
20654;DHT22;21083;50.898;4.902;2022-07-11T01:10:02;17.90;99.90
20654;DHT22;21083;50.898;4.902;2022-07-11T01:12:29;18.00;99.90
20654;DHT22;21083;50.898;4.902;2022-07-11T01:14:56;18.00;99.90
20654;DHT22;21083;50.898;4.902;2022-07-11T01:17:24;18.10;99.90
20654;DHT22;21083;50.898;4.902;2022-07-11T01:19:53;18.00;99.90
20654;DHT22;21083;50.898;4.902;2022-07-11T01:22:24;18.10;99.90
20654;DHT22;21083;50.898;4.902;2022-07-11T01:24:52;18.10;99.90
20654;DHT22;21083;50.898;4.902;2022-07-11T01:27:20;18.10;99.90
20654;DHT22;21083;50.898;4.902;2022-07-11T01:29:48;18.00;99.90
20654;DHT22;21083;50.898;4.902;2022-07-11T01:32:17;18.00;99.90
20654;DHT22;21083;50.898;4.902;2022-07-11T01:34:44;17.90;99.90
20654;DHT22;21083;50.898;4.902;2022-07-11T01:37:11;17.80;99.90
20654;DHT22;21083;50.898;4.902;2022-07-11T01:39:38;17.90;99.90
20654;DHT22;21083;50.898;4.902;2022-07-11T01:42:07;17.90;99.90
20654;DHT22;21083;50.898;4.902;2022-07-11T01:44:34;17.90;99.90
20654;DHT22;21083;50.898;4.902;2022-07-11T01:47:00;17.90;99.90
20654;DHT22;21083;50.898;4.902;2022-07-11T01:49:27;17.90;99.90
20654;DHT22;21083;50.898;4.902;2022-07-11T01:51:56;18.00;99.90
20654;DHT22;21083;50.898;4.902;2022-07-11T01:54:23;18.00;99.90
20654;DHT22;21083;50.898;4.902;2022-07-11T01:56:50;17.90;99.90
20654;DHT22;21083;50.898;4.902;2022-07-11T01:59:18;17.80;99.90
20654;DHT22;21083;50.898;4.902;2022-07-11T02:01:45;17.90;99.90
20654;DHT22;21083;50.898;4.902;2022-07-11T02:04:12;17.80;99.90
20654;DHT22;21083;50.898;4.902;2022-07-11T02:06:38;17.90;99.90
20654;DHT22;21083;50.898;4.902;2022-07-11T02:09:05;17.90;99.90
20654;DHT22;21083;50.898;4.902;2022-07-11T02:11:32;17.90;99.90
20654;DHT22;21083;50.898;4.902;2022-07-11T02:13:59;17.80;99.90
20654;DHT22;21083;50.898;4.902;2022-07-11T02:16:27;17.80;99.90
20654;DHT22;21083;50.898;4.902;2022-07-11T02:18:54;17.80;99.90
20654;DHT22;21083;50.898;4.902;2022-07-11T02:21:21;17.80;99.90
20654;DHT22;21083;50.898;4.902;2022-07-11T02:23:48;17.70;99.90
20654;DHT22;21083;50.898;4.902;2022-07-11T02:26:15;17.70;99.90
20654;DHT22;21083;50.898;4.902;2022-07-11T02:28:42;17.70;99.90
20654;DHT22;21083;50.898;4.902;2022-07-11T02:31:10;17.60;99.90
20654;DHT22;21083;50.898;4.902;2022-07-11T02:33:38;17.60;99.90
20654;DHT22;21083;50.898;4.902;2022-07-11T02:36:05;17.50;99.90
20654;DHT22;21083;50.898;4.902;2022-07-11T02:38:32;17.50;99.90
20654;DHT22;21083;50.898;4.902;2022-07-11T02:40:59;17.50;99.90
20654;DHT22;21083;50.898;4.902;2022-07-11T02:43:27;17.50;99.90
20654;DHT22;21083;50.898;4.902;2022-07-11T02:45:54;17.40;99.90
20654;DHT22;21083;50.898;4.902;2022-07-11T02:48:21;17.50;99.90
20654;DHT22;21083;50.898;4.902;2022-07-11T02:50:49;17.40;99.90
20654;DHT22;21083;50.898;4.902;2022-07-11T02:53:17;17.40;99.90
20654;DHT22;21083;50.898;4.902;2022-07-11T02:55:45;17.40;99.90
20654;DHT22;21083;50.898;4.902;2022-07-11T02:58:13;17.30;99.90
20654;DHT22;21083;50.898;4.902;2022-07-11T03:00:41;17.30;99.90
20654;DHT22;21083;50.898;4.902;2022-07-11T03:03:08;17.30;99.90
20654;DHT22;21083;50.898;4.902;2022-07-11T03:05:34;17.30;99.90
20654;DHT22;21083;50.898;4.902;2022-07-11T03:08:03;17.30;99.90
20654;DHT22;21083;50.898;4.902;2022-07-11T03:10:30;17.30;99.90
20654;DHT22;21083;50.898;4.902;2022-07-11T03:12:57;17.30;99.90
20654;DHT22;21083;50.898;4.902;2022-07-11T03:15:24;17.30;99.90
20654;DHT22;21083;50.898;4.902;2022-07-11T03:17:51;17.20;99.90
20654;DHT22;21083;50.898;4.902;2022-07-11T03:20:18;17.20;99.90
20654;DHT22;21083;50.898;4.902;2022-07-11T03:22:44;17.20;99.90
20654;DHT22;21083;50.898;4.902;2022-07-11T03:25:13;17.30;99.90
20654;DHT22;21083;50.898;4.902;2022-07-11T03:27:40;17.30;99.90
20654;DHT22;21083;50.898;4.902;2022-07-11T03:30:07;17.30;99.90
20654;DHT22;21083;50.898;4.902;2022-07-11T03:32:34;17.30;99.90
20654;DHT22;21083;50.898;4.902;2022-07-11T03:35:01;17.40;99.90
20654;DHT22;21083;50.898;4.902;2022-07-11T03:37:46;17.30;99.90
20654;DHT22;21083;50.898;4.902;2022-07-11T03:40:14;17.30;99.90
20654;DHT22;21083;50.898;4.902;2022-07-11T03:42:41;17.30;99.90
20654;DHT22;21083;50.898;4.902;2022-07-11T03:45:08;17.40;99.90
20654;DHT22;21083;50.898;4.902;2022-07-11T03:47:35;17.30;99.90
20654;DHT22;21083;50.898;4.902;2022-07-11T03:50:04;17.30;99.90
20654;DHT22;21083;50.898;4.902;2022-07-11T03:52:30;17.20;99.90
20654;DHT22;21083;50.898;4.902;2022-07-11T03:54:57;17.20;99.90
20654;DHT22;21083;50.898;4.902;2022-07-11T03:57:26;17.20;99.90
20654;DHT22;21083;50.898;4.902;2022-07-11T03:59:52;17.20;99.90
20654;DHT22;21083;50.898;4.902;2022-07-11T04:02:19;17.10;99.90
20654;DHT22;21083;50.898;4.902;2022-07-11T04:04:46;17.20;99.90
20654;DHT22;21083;50.898;4.902;2022-07-11T04:07:13;17.20;99.90
20654;DHT22;21083;50.898;4.902;2022-07-11T04:09:40;17.30;99.90
20654;DHT22;21083;50.898;4.902;2022-07-11T04:12:07;17.30;99.90
20654;DHT22;21083;50.898;4.902;2022-07-11T04:14:36;17.20;99.90
20654;DHT22;21083;50.898;4.902;2022-07-11T04:17:03;17.20;99.90
20654;DHT22;21083;50.898;4.902;2022-07-11T04:19:30;17.20;99.90
20654;DHT22;21083;50.898;4.902;2022-07-11T04:21:57;17.20;99.90
20654;DHT22;21083;50.898;4.902;2022-07-11T04:24:24;17.20;99.90
20654;DHT22;21083;50.898;4.902;2022-07-11T04:26:51;17.20;99.90
20654;DHT22;21083;50.898;4.902;2022-07-11T04:29:18;17.30;99.90
20654;DHT22;21083;50.898;4.902;2022-07-11T04:31:46;17.30;99.90
20654;DHT22;21083;50.898;4.902;2022-07-11T04:34:13;17.30;99.90
20654;DHT22;21083;50.898;4.902;2022-07-11T04:36:40;17.30;99.90
20654;DHT22;21083;50.898;4.902;2022-07-11T04:39:07;17.20;99.90
20654;DHT22;21083;50.898;4.902;2022-07-11T04:41:34;17.10;99.90
20654;DHT22;21083;50.898;4.902;2022-07-11T04:44:00;17.20;99.90
20654;DHT22;21083;50.898;4.902;2022-07-11T04:46:27;17.20;99.90
20654;DHT22;21083;50.898;4.902;2022-07-11T04:48:58;17.20;99.90
20654;DHT22;21083;50.898;4.902;2022-07-11T04:51:24;17.20;99.90
20654;DHT22;21083;50.898;4.902;2022-07-11T04:53:52;17.30;99.90
20654;DHT22;21083;50.898;4.902;2022-07-11T04:56:19;17.30;99.90
20654;DHT22;21083;50.898;4.902;2022-07-11T04:58:45;17.30;99.90
20654;DHT22;21083;50.898;4.902;2022-07-11T05:01:12;17.30;99.90
20654;DHT22;21083;50.898;4.902;2022-07-11T05:03:39;17.30;99.90
20654;DHT22;21083;50.898;4.902;2022-07-11T05:06:07;17.30;99.90
20654;DHT22;21083;50.898;4.902;2022-07-11T05:08:34;17.30;99.90
20654;DHT22;21083;50.898;4.902;2022-07-11T05:11:02;17.40;99.90
20654;DHT22;21083;50.898;4.902;2022-07-11T05:13:30;17.40;99.90
20654;DHT22;21083;50.898;4.902;2022-07-11T05:15:57;17.40;99.90
20654;DHT22;21083;50.898;4.902;2022-07-11T05:18:24;17.50;99.90
20654;DHT22;21083;50.898;4.902;2022-07-11T05:20:50;17.50;99.90
20654;DHT22;21083;50.898;4.902;2022-07-11T05:23:20;17.50;99.90
20654;DHT22;21083;50.898;4.902;2022-07-11T05:25:47;17.60;99.90
20654;DHT22;21083;50.898;4.902;2022-07-11T05:28:13;17.60;99.90
20654;DHT22;21083;50.898;4.902;2022-07-11T05:30:41;17.60;99.90
20654;DHT22;21083;50.898;4.902;2022-07-11T05:33:08;17.60;99.90
20654;DHT22;21083;50.898;4.902;2022-07-11T05:35:34;17.70;99.90
20654;DHT22;21083;50.898;4.902;2022-07-11T05:38:01;17.80;99.90
20654;DHT22;21083;50.898;4.902;2022-07-11T05:40:30;17.80;99.90
20654;DHT22;21083;50.898;4.902;2022-07-11T05:42:56;17.90;99.90
20654;DHT22;21083;50.898;4.902;2022-07-11T05:45:23;17.90;99.90
20654;DHT22;21083;50.898;4.902;2022-07-11T05:47:50;17.90;99.90
20654;DHT22;21083;50.898;4.902;2022-07-11T05:50:17;17.90;99.90
20654;DHT22;21083;50.898;4.902;2022-07-11T05:52:44;17.90;99.90
20654;DHT22;21083;50.898;4.902;2022-07-11T05:55:11;18.00;99.90
20654;DHT22;21083;50.898;4.902;2022-07-11T05:57:39;18.00;99.90
20654;DHT22;21083;50.898;4.902;2022-07-11T06:00:07;18.10;99.90
20654;DHT22;21083;50.898;4.902;2022-07-11T06:02:34;18.20;99.90
20654;DHT22;21083;50.898;4.902;2022-07-11T06:05:01;18.20;99.90
20654;DHT22;21083;50.898;4.902;2022-07-11T06:07:28;18.30;99.90
20654;DHT22;21083;50.898;4.902;2022-07-11T06:10:12;18.40;99.90
20654;DHT22;21083;50.898;4.902;2022-07-11T06:12:41;18.50;99.90
20654;DHT22;21083;50.898;4.902;2022-07-11T06:15:10;18.60;99.90
20654;DHT22;21083;50.898;4.902;2022-07-11T06:17:37;18.60;99.90
20654;DHT22;21083;50.898;4.902;2022-07-11T06:20:04;18.80;99.90
20654;DHT22;21083;50.898;4.902;2022-07-11T06:22:32;18.80;99.90
20654;DHT22;21083;50.898;4.902;2022-07-11T06:24:58;18.90;99.90
20654;DHT22;21083;50.898;4.902;2022-07-11T06:27:25;18.90;99.90
20654;DHT22;21083;50.898;4.902;2022-07-11T06:29:53;18.90;99.90
20654;DHT22;21083;50.898;4.902;2022-07-11T06:32:20;18.90;99.90
20654;DHT22;21083;50.898;4.902;2022-07-11T06:34:49;19.00;99.90
20654;DHT22;21083;50.898;4.902;2022-07-11T06:37:17;19.10;99.90
20654;DHT22;21083;50.898;4.902;2022-07-11T06:39:45;19.20;99.90
20654;DHT22;21083;50.898;4.902;2022-07-11T06:42:11;19.30;99.90
20654;DHT22;21083;50.898;4.902;2022-07-11T06:44:38;19.40;99.90
20654;DHT22;21083;50.898;4.902;2022-07-11T06:47:07;19.50;99.90
20654;DHT22;21083;50.898;4.902;2022-07-11T06:49:33;19.50;99.90
20654;DHT22;21083;50.898;4.902;2022-07-11T06:52:00;19.70;99.90
20654;DHT22;21083;50.898;4.902;2022-07-11T06:54:27;19.80;99.90
20654;DHT22;21083;50.898;4.902;2022-07-11T06:56:54;20.00;99.90
20654;DHT22;21083;50.898;4.902;2022-07-11T06:59:22;20.20;99.90
20654;DHT22;21083;50.898;4.902;2022-07-11T07:01:49;20.30;99.90
20654;DHT22;21083;50.898;4.902;2022-07-11T07:04:17;20.30;99.90
20654;DHT22;21083;50.898;4.902;2022-07-11T07:06:44;20.20;99.90
20654;DHT22;21083;50.898;4.902;2022-07-11T07:09:12;20.40;99.90
20654;DHT22;21083;50.898;4.902;2022-07-11T07:11:39;20.60;99.90
20654;DHT22;21083;50.898;4.902;2022-07-11T07:14:06;20.90;99.90
20654;DHT22;21083;50.898;4.902;2022-07-11T07:16:33;21.10;99.90
20654;DHT22;21083;50.898;4.902;2022-07-11T07:19:00;21.30;99.90
20654;DHT22;21083;50.898;4.902;2022-07-11T07:21:29;21.30;99.90
20654;DHT22;21083;50.898;4.902;2022-07-11T07:23:55;21.30;99.90
20654;DHT22;21083;50.898;4.902;2022-07-11T07:26:23;21.50;99.90
20654;DHT22;21083;50.898;4.902;2022-07-11T07:28:50;21.50;99.90
20654;DHT22;21083;50.898;4.902;2022-07-11T07:31:17;21.40;99.90
20654;DHT22;21083;50.898;4.902;2022-07-11T07:33:45;21.50;99.90
20654;DHT22;21083;50.898;4.902;2022-07-11T07:36:11;21.70;99.90
20654;DHT22;21083;50.898;4.902;2022-07-11T07:38:40;21.90;99.90
20654;DHT22;21083;50.898;4.902;2022-07-11T07:41:09;21.90;99.90
20654;DHT22;21083;50.898;4.902;2022-07-11T07:43:36;21.90;99.90
20654;DHT22;21083;50.898;4.902;2022-07-11T07:46:03;21.90;99.90
20654;DHT22;21083;50.898;4.902;2022-07-11T07:48:30;22.00;99.90
20654;DHT22;21083;50.898;4.902;2022-07-11T07:50:57;22.10;99.90
20654;DHT22;21083;50.898;4.902;2022-07-11T07:53:24;22.30;99.90
20654;DHT22;21083;50.898;4.902;2022-07-11T07:55:53;22.40;99.90
20654;DHT22;21083;50.898;4.902;2022-07-11T07:58:19;22.50;99.90
20654;DHT22;21083;50.898;4.902;2022-07-11T08:00:46;22.70;99.90
20654;DHT22;21083;50.898;4.902;2022-07-11T08:03:31;22.70;99.90
20654;DHT22;21083;50.898;4.902;2022-07-11T08:05:57;22.70;99.90
20654;DHT22;21083;50.898;4.902;2022-07-11T08:08:24;22.40;99.90
20654;DHT22;21083;50.898;4.902;2022-07-11T08:10:53;22.30;99.90
20654;DHT22;21083;50.898;4.902;2022-07-11T08:13:19;22.30;99.90
20654;DHT22;21083;50.898;4.902;2022-07-11T08:15:47;22.30;99.90
20654;DHT22;21083;50.898;4.902;2022-07-11T08:18:15;22.30;99.90
20654;DHT22;21083;50.898;4.902;2022-07-11T08:20:41;22.30;99.90
20654;DHT22;21083;50.898;4.902;2022-07-11T08:23:09;22.20;99.90
20654;DHT22;21083;50.898;4.902;2022-07-11T08:25:38;22.20;99.90
20654;DHT22;21083;50.898;4.902;2022-07-11T08:28:06;22.20;99.90
20654;DHT22;21083;50.898;4.902;2022-07-11T08:30:33;22.30;99.90
20654;DHT22;21083;50.898;4.902;2022-07-11T08:33:00;22.20;99.90
20654;DHT22;21083;50.898;4.902;2022-07-11T08:35:28;22.20;99.90
20654;DHT22;21083;50.898;4.902;2022-07-11T08:37:54;22.20;99.90
20654;DHT22;21083;50.898;4.902;2022-07-11T08:40:21;22.30;99.90
20654;DHT22;21083;50.898;4.902;2022-07-11T08:42:48;22.30;99.90
20654;DHT22;21083;50.898;4.902;2022-07-11T08:45:17;22.40;99.90
20654;DHT22;21083;50.898;4.902;2022-07-11T08:47:44;22.50;99.90
20654;DHT22;21083;50.898;4.902;2022-07-11T08:50:12;22.60;99.90
20654;DHT22;21083;50.898;4.902;2022-07-11T08:52:39;22.60;99.90
20654;DHT22;21083;50.898;4.902;2022-07-11T08:55:07;22.70;99.90
20654;DHT22;21083;50.898;4.902;2022-07-11T08:57:35;22.80;99.90
20654;DHT22;21083;50.898;4.902;2022-07-11T09:00:06;22.80;99.90
20654;DHT22;21083;50.898;4.902;2022-07-11T09:02:35;23.00;99.90
20654;DHT22;21083;50.898;4.902;2022-07-11T09:05:03;22.90;99.90
20654;DHT22;21083;50.898;4.902;2022-07-11T09:07:31;22.80;99.90
20654;DHT22;21083;50.898;4.902;2022-07-11T09:09:58;22.80;99.90
20654;DHT22;21083;50.898;4.902;2022-07-11T09:12:25;22.90;99.90
20654;DHT22;21083;50.898;4.902;2022-07-11T09:14:52;23.00;99.90
20654;DHT22;21083;50.898;4.902;2022-07-11T09:17:25;23.10;99.90
20654;DHT22;21083;50.898;4.902;2022-07-11T09:19:54;23.20;99.90
20654;DHT22;21083;50.898;4.902;2022-07-11T09:22:21;23.20;99.90
20654;DHT22;21083;50.898;4.902;2022-07-11T09:25:09;23.30;99.90
20654;DHT22;21083;50.898;4.902;2022-07-11T09:27:58;23.40;99.90
20654;DHT22;21083;50.898;4.902;2022-07-11T09:30:29;23.50;99.90
20654;DHT22;21083;50.898;4.902;2022-07-11T09:32:58;23.70;99.90
20654;DHT22;21083;50.898;4.902;2022-07-11T09:35:29;23.60;99.90
20654;DHT22;21083;50.898;4.902;2022-07-11T09:37:57;23.70;99.90
20654;DHT22;21083;50.898;4.902;2022-07-11T09:40:24;23.90;99.90
20654;DHT22;21083;50.898;4.902;2022-07-11T09:42:54;24.20;99.90
20654;DHT22;21083;50.898;4.902;2022-07-11T09:45:23;24.30;99.90
20654;DHT22;21083;50.898;4.902;2022-07-11T09:47:52;24.50;99.90
20654;DHT22;21083;50.898;4.902;2022-07-11T09:50:20;24.50;99.90
20654;DHT22;21083;50.898;4.902;2022-07-11T09:53:06;24.30;99.90
20654;DHT22;21083;50.898;4.902;2022-07-11T09:55:35;24.20;99.90
20654;DHT22;21083;50.898;4.902;2022-07-11T09:58:06;24.10;99.90
20654;DHT22;21083;50.898;4.902;2022-07-11T10:00:33;24.50;99.90
20654;DHT22;21083;50.898;4.902;2022-07-11T10:03:01;24.70;99.90
20654;DHT22;21083;50.898;4.902;2022-07-11T10:05:29;24.40;99.90
20654;DHT22;21083;50.898;4.902;2022-07-11T10:07:56;24.30;99.90
20654;DHT22;21083;50.898;4.902;2022-07-11T10:10:26;24.30;99.90
20654;DHT22;21083;50.898;4.902;2022-07-11T10:12:54;24.60;99.90
20654;DHT22;21083;50.898;4.902;2022-07-11T10:15:27;25.00;99.90
20654;DHT22;21083;50.898;4.902;2022-07-11T10:18:03;25.40;99.90
20654;DHT22;21083;50.898;4.902;2022-07-11T10:20:35;25.90;99.90
20654;DHT22;21083;50.898;4.902;2022-07-11T10:23:12;26.30;99.90
20654;DHT22;21083;50.898;4.902;2022-07-11T10:25:48;26.60;99.90
20654;DHT22;21083;50.898;4.902;2022-07-11T10:28:25;26.70;99.90
20654;DHT22;21083;50.898;4.902;2022-07-11T10:30:54;26.90;99.90
20654;DHT22;21083;50.898;4.902;2022-07-11T10:33:26;27.00;99.90
20654;DHT22;21083;50.898;4.902;2022-07-11T10:35:54;27.30;99.90
20654;DHT22;21083;50.898;4.902;2022-07-11T10:38:22;27.10;99.90
20654;DHT22;21083;50.898;4.902;2022-07-11T10:40:52;26.70;99.90
20654;DHT22;21083;50.898;4.902;2022-07-11T10:43:36;26.70;99.90
20654;DHT22;21083;50.898;4.902;2022-07-11T10:46:07;26.60;99.90
20654;DHT22;21083;50.898;4.902;2022-07-11T10:48:50;26.50;99.90
20654;DHT22;21083;50.898;4.902;2022-07-11T10:51:24;26.50;99.90
20654;DHT22;21083;50.898;4.902;2022-07-11T10:53:56;26.30;99.90
20654;DHT22;21083;50.898;4.902;2022-07-11T10:56:50;26.40;99.90
20654;DHT22;21083;50.898;4.902;2022-07-11T10:59:19;26.50;99.90
20654;DHT22;21083;50.898;4.902;2022-07-11T11:02:09;26.50;99.90
20654;DHT22;21083;50.898;4.902;2022-07-11T11:04:48;26.60;99.90
20654;DHT22;21083;50.898;4.902;2022-07-11T11:07:34;26.70;99.90
20654;DHT22;21083;50.898;4.902;2022-07-11T11:10:05;26.90;99.90
20654;DHT22;21083;50.898;4.902;2022-07-11T11:13:13;27.20;99.90
20654;DHT22;21083;50.898;4.902;2022-07-11T11:15:49;27.40;99.90
20654;DHT22;21083;50.898;4.902;2022-07-11T11:18:35;27.40;99.90
20654;DHT22;21083;50.898;4.902;2022-07-11T11:21:21;27.20;99.90
20654;DHT22;21083;50.898;4.902;2022-07-11T11:24:03;26.90;99.90
20654;DHT22;21083;50.898;4.902;2022-07-11T11:26:50;27.00;99.90
20654;DHT22;21083;50.898;4.902;2022-07-11T11:29:21;27.10;99.90
20654;DHT22;21083;50.898;4.902;2022-07-11T11:31:53;27.30;99.90
20654;DHT22;21083;50.898;4.902;2022-07-11T11:34:21;27.60;99.90
20654;DHT22;21083;50.898;4.902;2022-07-11T11:36:53;27.80;99.90
20654;DHT22;21083;50.898;4.902;2022-07-11T11:39:29;27.70;99.90
20654;DHT22;21083;50.898;4.902;2022-07-11T11:42:13;28.00;99.90
20654;DHT22;21083;50.898;4.902;2022-07-11T11:44:57;28.20;99.90
20654;DHT22;21083;50.898;4.902;2022-07-11T11:47:32;28.40;99.90
20654;DHT22;21083;50.898;4.902;2022-07-11T11:50:02;28.30;99.90
20654;DHT22;21083;50.898;4.902;2022-07-11T11:52:32;28.40;99.90
20654;DHT22;21083;50.898;4.902;2022-07-11T11:54:59;28.30;99.90
20654;DHT22;21083;50.898;4.902;2022-07-11T11:57:28;28.10;99.90
20654;DHT22;21083;50.898;4.902;2022-07-11T11:59:56;28.00;99.90
20654;DHT22;21083;50.898;4.902;2022-07-11T12:02:25;28.20;99.90
20654;DHT22;21083;50.898;4.902;2022-07-11T12:04:54;28.70;99.90
20654;DHT22;21083;50.898;4.902;2022-07-11T12:07:22;28.80;99.90
20654;DHT22;21083;50.898;4.902;2022-07-11T12:09:50;28.90;99.90
20654;DHT22;21083;50.898;4.902;2022-07-11T12:12:23;29.20;99.90
20654;DHT22;21083;50.898;4.902;2022-07-11T12:15:23;29.40;99.90
20654;DHT22;21083;50.898;4.902;2022-07-11T12:17:53;29.50;99.90
20654;DHT22;21083;50.898;4.902;2022-07-11T12:20:39;29.50;99.90
20654;DHT22;21083;50.898;4.902;2022-07-11T12:23:08;29.60;99.90
20654;DHT22;21083;50.898;4.902;2022-07-11T12:25:35;29.70;99.90
20654;DHT22;21083;50.898;4.902;2022-07-11T12:28:04;30.10;99.90
20654;DHT22;21083;50.898;4.902;2022-07-11T12:30:37;30.30;99.90
20654;DHT22;21083;50.898;4.902;2022-07-11T12:33:06;30.30;99.90
20654;DHT22;21083;50.898;4.902;2022-07-11T12:35:44;30.00;99.90
20654;DHT22;21083;50.898;4.902;2022-07-11T12:38:20;29.50;99.90
20654;DHT22;21083;50.898;4.902;2022-07-11T12:41:01;29.50;99.90
20654;DHT22;21083;50.898;4.902;2022-07-11T12:43:42;29.70;99.90
20654;DHT22;21083;50.898;4.902;2022-07-11T12:46:32;30.00;99.90
20654;DHT22;21083;50.898;4.902;2022-07-11T12:49:02;30.20;99.90
20654;DHT22;21083;50.898;4.902;2022-07-11T12:51:31;30.30;99.90
20654;DHT22;21083;50.898;4.902;2022-07-11T12:54:02;30.00;99.90
20654;DHT22;21083;50.898;4.902;2022-07-11T12:56:29;29.90;99.90
20654;DHT22;21083;50.898;4.902;2022-07-11T12:58:56;29.90;99.90
20654;DHT22;21083;50.898;4.902;2022-07-11T13:01:24;29.80;99.90
20654;DHT22;21083;50.898;4.902;2022-07-11T13:03:52;29.90;99.90
20654;DHT22;21083;50.898;4.902;2022-07-11T13:06:20;30.50;99.90
20654;DHT22;21083;50.898;4.902;2022-07-11T13:09:08;30.70;99.90
20654;DHT22;21083;50.898;4.902;2022-07-11T13:11:34;30.60;99.90
20654;DHT22;21083;50.898;4.902;2022-07-11T13:14:02;30.30;99.90
20654;DHT22;21083;50.898;4.902;2022-07-11T13:16:28;29.90;99.90
20654;DHT22;21083;50.898;4.902;2022-07-11T13:18:57;29.90;99.90
20654;DHT22;21083;50.898;4.902;2022-07-11T13:21:25;30.20;99.90
20654;DHT22;21083;50.898;4.902;2022-07-11T13:23:52;30.60;99.90
20654;DHT22;21083;50.898;4.902;2022-07-11T13:26:19;31.20;99.90
20654;DHT22;21083;50.898;4.902;2022-07-11T13:28:46;31.50;99.90
20654;DHT22;21083;50.898;4.902;2022-07-11T13:31:13;31.20;99.90
20654;DHT22;21083;50.898;4.902;2022-07-11T13:33:40;31.30;99.90
20654;DHT22;21083;50.898;4.902;2022-07-11T13:36:11;31.50;99.90
20654;DHT22;21083;50.898;4.902;2022-07-11T13:38:40;31.60;99.90
20654;DHT22;21083;50.898;4.902;2022-07-11T13:41:12;31.70;99.90
20654;DHT22;21083;50.898;4.902;2022-07-11T13:43:40;31.30;99.90
20654;DHT22;21083;50.898;4.902;2022-07-11T13:46:10;30.90;99.90
20654;DHT22;21083;50.898;4.902;2022-07-11T13:48:37;30.70;99.90
20654;DHT22;21083;50.898;4.902;2022-07-11T13:51:08;30.70;99.90
20654;DHT22;21083;50.898;4.902;2022-07-11T13:53:42;30.60;99.90
20654;DHT22;21083;50.898;4.902;2022-07-11T13:56:10;30.30;99.90
20654;DHT22;21083;50.898;4.902;2022-07-11T13:58:43;30.10;99.90
20654;DHT22;21083;50.898;4.902;2022-07-11T14:01:09;30.40;99.90
20654;DHT22;21083;50.898;4.902;2022-07-11T14:03:42;30.70;99.90
20654;DHT22;21083;50.898;4.902;2022-07-11T14:06:09;31.10;99.90
20654;DHT22;21083;50.898;4.902;2022-07-11T14:08:37;31.70;99.90
20654;DHT22;21083;50.898;4.902;2022-07-11T14:11:05;32.10;99.90
20654;DHT22;21083;50.898;4.902;2022-07-11T14:13:33;32.10;99.90
20654;DHT22;21083;50.898;4.902;2022-07-11T14:16:00;31.60;99.90
20654;DHT22;21083;50.898;4.902;2022-07-11T14:18:27;30.80;99.90
20654;DHT22;21083;50.898;4.902;2022-07-11T14:20:54;30.80;99.90
20654;DHT22;21083;50.898;4.902;2022-07-11T14:23:24;31.10;99.90
20654;DHT22;21083;50.898;4.902;2022-07-11T14:25:51;31.10;99.90
20654;DHT22;21083;50.898;4.902;2022-07-11T14:28:26;31.70;99.90
20654;DHT22;21083;50.898;4.902;2022-07-11T14:30:53;32.20;99.90
20654;DHT22;21083;50.898;4.902;2022-07-11T14:33:26;32.60;99.90
20654;DHT22;21083;50.898;4.902;2022-07-11T14:35:53;32.60;99.90
20654;DHT22;21083;50.898;4.902;2022-07-11T14:38:20;32.10;99.90
20654;DHT22;21083;50.898;4.902;2022-07-11T14:40:47;31.60;99.90
20654;DHT22;21083;50.898;4.902;2022-07-11T14:43:15;31.60;99.90
20654;DHT22;21083;50.898;4.902;2022-07-11T14:45:46;31.70;99.90
20654;DHT22;21083;50.898;4.902;2022-07-11T14:48:13;31.90;99.90
20654;DHT22;21083;50.898;4.902;2022-07-11T14:50:40;32.00;99.90
20654;DHT22;21083;50.898;4.902;2022-07-11T14:53:07;32.40;99.90
20654;DHT22;21083;50.898;4.902;2022-07-11T14:55:34;32.70;99.90
20654;DHT22;21083;50.898;4.902;2022-07-11T14:58:00;32.70;99.90
20654;DHT22;21083;50.898;4.902;2022-07-11T15:00:27;32.40;99.90
20654;DHT22;21083;50.898;4.902;2022-07-11T15:02:57;32.10;99.90
20654;DHT22;21083;50.898;4.902;2022-07-11T15:05:45;31.90;99.90
20654;DHT22;21083;50.898;4.902;2022-07-11T15:08:12;31.90;99.90
20654;DHT22;21083;50.898;4.902;2022-07-11T15:10:56;31.70;99.90
20654;DHT22;21083;50.898;4.902;2022-07-11T15:13:40;31.90;99.90
20654;DHT22;21083;50.898;4.902;2022-07-11T15:16:08;32.60;99.90
20654;DHT22;21083;50.898;4.902;2022-07-11T15:18:37;32.70;99.90
20654;DHT22;21083;50.898;4.902;2022-07-11T15:21:04;33.00;99.90
20654;DHT22;21083;50.898;4.902;2022-07-11T15:23:32;33.20;99.90
20654;DHT22;21083;50.898;4.902;2022-07-11T15:26:00;33.00;99.90
20654;DHT22;21083;50.898;4.902;2022-07-11T15:28:28;32.60;99.90
20654;DHT22;21083;50.898;4.902;2022-07-11T15:30:55;32.60;99.90
20654;DHT22;21083;50.898;4.902;2022-07-11T15:33:21;32.60;99.90
20654;DHT22;21083;50.898;4.902;2022-07-11T15:35:52;32.20;99.90
20654;DHT22;21083;50.898;4.902;2022-07-11T15:38:20;32.60;99.90
20654;DHT22;21083;50.898;4.902;2022-07-11T15:40:48;32.80;99.90
20654;DHT22;21083;50.898;4.902;2022-07-11T15:43:16;33.00;99.90